createdAt,value
2022-08-23T00:00:05.611Z,73.14
2022-08-23T00:03:05.927Z,73.60
2022-08-23T00:05:39.846Z,73.56
2022-08-23T00:08:07.875Z,73.94
2022-08-23T00:10:35.841Z,73.81
2022-08-23T00:16:24.855Z,74.65
2022-08-23T00:18:51.996Z,74.50
2022-08-23T00:21:20.271Z,74.72
2022-08-23T00:23:47.831Z,74.60
2022-08-23T00:26:15.929Z,74.16
2022-08-23T00:28:49.641Z,73.85
2022-08-23T00:31:19.324Z,73.76
2022-08-23T00:33:52.011Z,74.19
2022-08-23T00:36:23.834Z,75.10
2022-08-23T00:38:52.217Z,75.51
2022-08-23T00:41:19.858Z,74.58
2022-08-23T00:44:07.154Z,74.92
2022-08-23T00:47:09.827Z,74.99
2022-08-23T00:49:39.054Z,75.25
2022-08-23T00:52:33.460Z,75.90
2022-08-23T00:55:01.997Z,74.61
2022-08-23T00:57:31.204Z,75.45
2022-08-23T00:59:58.219Z,76.35
2022-08-23T01:02:29.876Z,75.97
2022-08-23T01:04:59.350Z,75.84
2022-08-23T01:13:41.782Z,75.94
2022-08-23T01:16:15.704Z,76.42
2022-08-23T01:18:44.699Z,76.69
2022-08-23T01:21:19.528Z,76.51
2022-08-23T01:29:42.383Z,76.57
2022-08-23T01:32:16.602Z,76.09
2022-08-23T01:34:44.735Z,76.46
2022-08-23T01:37:22.798Z,76.55
2022-08-23T01:39:52.842Z,76.31
2022-08-23T01:42:25.148Z,76.06
2022-08-23T01:44:51.870Z,75.35
2022-08-23T01:47:19.837Z,75.26
2022-08-23T01:50:18.105Z,75.84
2022-08-23T01:52:46.795Z,75.68
2022-08-23T01:55:16.552Z,75.21
2022-08-23T01:57:48.475Z,77.14
2022-08-23T02:00:20.344Z,76.20
2022-08-23T02:02:53.822Z,75.47
2022-08-23T02:05:26.009Z,75.16
2022-08-23T02:07:53.993Z,75.84
2022-08-23T02:16:17.775Z,75.75
2022-08-23T02:18:52.841Z,75.41
2022-08-23T02:21:22.656Z,75.60
2022-08-23T02:23:52.950Z,75.97
2022-08-23T02:26:21.818Z,75.48
2022-08-23T02:28:59.846Z,77.25
2022-08-23T02:34:20.300Z,76.95
2022-08-23T02:36:48.111Z,76.11
2022-08-23T02:39:42.663Z,77.22
2022-08-23T02:42:12.091Z,76.32
2022-08-23T02:44:44.192Z,77.33
2022-08-23T02:47:12.415Z,76.78
2022-08-23T02:49:43.891Z,77.36
2022-08-23T02:52:12.512Z,76.85
2022-08-23T02:54:39.952Z,76.80
2022-08-23T02:57:12.901Z,77.44
2022-08-23T02:59:39.814Z,76.54
2022-08-23T03:02:33.156Z,76.88
2022-08-23T03:05:01.925Z,76.78
2022-08-23T03:07:36.478Z,76.40
2022-08-23T03:10:05.913Z,76.57
2022-08-23T03:12:42.078Z,76.28
2022-08-23T03:15:10.319Z,76.59
2022-08-23T03:17:38.063Z,76.07
2022-08-23T03:20:10.636Z,76.37
2022-08-23T03:22:54.267Z,75.75
2022-08-23T03:25:29.002Z,75.44
2022-08-23T03:28:24.378Z,76.49
2022-08-23T03:30:52.520Z,76.26
2022-08-23T03:33:21.119Z,76.69
2022-08-23T03:35:50.317Z,76.05
2022-08-23T03:38:19.717Z,75.98
2022-08-23T03:40:47.913Z,75.66
2022-08-23T03:43:15.816Z,75.92
2022-08-23T03:45:48.834Z,76.39
2022-08-23T03:48:16.617Z,76.03
2022-08-23T03:50:49.831Z,75.18
2022-08-23T03:53:24.151Z,75.02
2022-08-23T03:55:56.451Z,75.03
2022-08-23T03:58:25.561Z,74.98
2022-08-23T04:00:53.922Z,76.18
2022-08-23T04:03:21.840Z,75.69
2022-08-23T04:06:29.724Z,75.93
2022-08-23T04:08:57.809Z,75.81
2022-08-23T04:14:18.716Z,75.36
2022-08-23T04:16:52.696Z,75.58
2022-08-23T04:19:23.997Z,74.98
2022-08-23T04:22:02.021Z,75.43
2022-08-23T04:24:38.477Z,75.12
2022-08-23T04:27:06.448Z,75.82
2022-08-23T04:29:59.915Z,75.83
2022-08-23T04:32:32.842Z,75.87
2022-08-23T04:35:08.286Z,75.97
2022-08-23T04:37:40.987Z,75.52
2022-08-23T04:40:27.662Z,75.12
2022-08-23T04:42:56.156Z,74.44
2022-08-23T04:48:32.839Z,74.48
2022-08-23T04:50:59.861Z,74.68
2022-08-23T04:53:35.469Z,74.80
2022-08-23T04:56:25.854Z,75.13
2022-08-23T04:58:54.186Z,74.97
2022-08-23T05:01:30.635Z,74.78
2022-08-23T05:04:02.936Z,74.45
2022-08-23T05:06:31.844Z,73.70
2022-08-23T05:09:25.111Z,73.81
2022-08-23T05:11:53.861Z,73.75
2022-08-23T05:14:23.925Z,73.92
2022-08-23T05:16:51.997Z,73.10
2022-08-23T05:19:19.918Z,73.39
2022-08-23T05:21:47.857Z,73.75
2022-08-23T05:24:44.894Z,74.15
2022-08-23T05:27:13.728Z,73.58
2022-08-23T05:29:42.204Z,73.68
2022-08-23T05:32:10.649Z,74.27
2022-08-23T05:34:37.924Z,73.57
2022-08-23T05:37:09.853Z,73.40
2022-08-23T05:39:39.939Z,73.43
2022-08-23T05:42:11.623Z,73.13
2022-08-23T05:44:39.915Z,72.79
2022-08-23T05:50:19.889Z,72.94
2022-08-23T05:52:51.106Z,72.28
2022-08-23T05:55:19.889Z,71.84
2022-08-23T05:57:57.860Z,71.26
2022-08-23T06:00:37.306Z,71.16
2022-08-23T06:03:33.940Z,70.64
2022-08-23T06:06:07.918Z,70.85
2022-08-23T06:08:38.504Z,70.29
2022-08-23T06:14:09.333Z,70.19
2022-08-23T06:16:42.076Z,69.87
2022-08-23T06:19:14.179Z,69.31
2022-08-23T06:24:41.836Z,68.59
2022-08-23T06:27:16.011Z,67.95
2022-08-23T06:29:44.456Z,68.35
2022-08-23T06:32:48.926Z,67.99
2022-08-23T06:38:41.763Z,68.59
2022-08-23T06:41:15.833Z,67.82
2022-08-23T06:44:09.980Z,68.53
2022-08-23T06:46:58.451Z,66.73
2022-08-23T06:49:29.107Z,68.17
2022-08-23T06:51:59.999Z,66.81
2022-08-23T06:54:46.423Z,67.79
2022-08-23T06:57:27.908Z,67.99
2022-08-23T07:00:22.078Z,66.29
2022-08-23T07:03:09.904Z,67.29
2022-08-23T07:05:56.427Z,65.50
2022-08-23T07:14:16.917Z,65.76
2022-08-23T07:16:49.890Z,65.36
2022-08-23T07:22:15.769Z,63.55
2022-08-23T07:24:44.142Z,64.29
2022-08-23T07:27:12.369Z,64.52
2022-08-23T07:32:41.900Z,64.48
2022-08-23T07:35:38.237Z,63.19
2022-08-23T07:38:13.920Z,62.62
2022-08-23T07:40:41.940Z,61.94
2022-08-23T07:43:10.403Z,61.47
2022-08-23T07:45:40.542Z,60.68
2022-08-23T07:48:52.990Z,60.25
2022-08-23T07:51:35.012Z,59.83
2022-08-23T07:54:04.365Z,59.06
2022-08-23T07:56:57.986Z,59.24
2022-08-23T08:02:49.994Z,59.26
2022-08-23T08:05:24.009Z,57.27
2022-08-23T08:07:53.919Z,57.60
2022-08-23T08:10:24.488Z,56.71
2022-08-23T08:12:57.008Z,56.15
2022-08-23T08:15:50.506Z,56.22
2022-08-23T08:21:47.363Z,56.62
2022-08-23T08:24:44.589Z,56.14
2022-08-23T08:27:18.957Z,56.28
2022-08-23T08:29:46.059Z,56.30
2022-08-23T08:32:14.268Z,56.27
2022-08-23T08:34:42.507Z,54.17
2022-08-23T08:37:36.588Z,55.82
2022-08-23T08:40:11.339Z,54.42
2022-08-23T08:43:03.724Z,55.49
2022-08-23T08:46:03.378Z,55.21
2022-08-23T08:48:41.945Z,54.73
2022-08-23T08:54:37.574Z,54.43
2022-08-23T08:57:12.790Z,53.96
2022-08-23T09:00:06.178Z,53.68
2022-08-23T09:02:38.462Z,53.89
2022-08-23T09:05:14.617Z,53.90
2022-08-23T09:07:50.577Z,53.99
2022-08-23T09:11:23.119Z,54.91
2022-08-23T09:14:06.269Z,53.79
2022-08-23T09:19:57.496Z,53.41
2022-08-23T09:22:35.629Z,55.25
2022-08-23T09:25:11.278Z,52.64
2022-08-23T09:27:47.855Z,53.52
2022-08-23T09:30:25.416Z,52.93
2022-08-23T09:32:55.960Z,54.39
2022-08-23T09:35:25.678Z,54.24
2022-08-23T09:38:21.444Z,51.06
2022-08-23T09:40:54.072Z,52.69
2022-08-23T09:46:26.902Z,52.94
2022-08-23T09:49:30.177Z,52.17
2022-08-23T09:53:00.431Z,51.83
2022-08-23T09:55:40.488Z,50.57
2022-08-23T09:58:40.725Z,49.54
2022-08-23T10:01:22.007Z,48.39
2022-08-23T10:04:21.808Z,50.13
2022-08-23T10:06:50.763Z,48.85
2022-08-23T10:09:32.756Z,50.05
2022-08-23T10:12:03.935Z,49.48
2022-08-23T10:14:35.953Z,49.38
2022-08-23T10:17:41.660Z,49.61
2022-08-23T10:20:46.266Z,48.80
2022-08-23T10:23:33.428Z,48.13
2022-08-23T10:26:39.315Z,47.92
2022-08-23T10:29:38.345Z,49.00
2022-08-23T10:32:28.098Z,49.34
2022-08-23T10:35:24.729Z,47.83
2022-08-23T10:38:20.702Z,47.72
2022-08-23T10:41:13.421Z,46.72
2022-08-23T10:43:59.850Z,47.56
2022-08-23T10:46:37.577Z,46.63
2022-08-23T10:49:18.972Z,47.73
2022-08-23T10:55:17.837Z,44.96
2022-08-23T10:57:47.798Z,46.04
2022-08-23T11:00:23.321Z,45.72
2022-08-23T11:03:19.400Z,45.00
2022-08-23T11:06:30.894Z,45.28
2022-08-23T11:09:21.022Z,44.91
2022-08-23T11:11:49.933Z,43.44
2022-08-23T11:14:36.765Z,44.29
2022-08-23T11:17:11.810Z,43.93
2022-08-23T11:19:55.952Z,43.42
2022-08-23T11:22:37.642Z,44.03
2022-08-23T11:25:25.866Z,42.75
2022-08-23T11:28:21.902Z,41.23
2022-08-23T11:31:00.415Z,42.21
2022-08-23T11:33:45.113Z,42.00
2022-08-23T11:40:01.022Z,43.44
2022-08-23T11:42:38.937Z,43.78
2022-08-23T11:48:36.254Z,44.59
2022-08-23T11:51:36.804Z,43.90
2022-08-23T11:54:45.069Z,44.52
2022-08-23T11:57:19.051Z,44.25
2022-08-23T12:00:38.094Z,42.33
2022-08-23T12:03:27.000Z,43.37
2022-08-23T12:06:19.814Z,44.94
2022-08-23T12:09:02.170Z,42.84
2022-08-23T12:11:54.653Z,42.48
2022-08-23T12:14:30.737Z,41.87
2022-08-23T12:17:28.637Z,41.83
2022-08-23T12:23:26.523Z,44.23
2022-08-23T12:26:07.354Z,44.05
2022-08-23T12:28:58.785Z,42.73
2022-08-23T12:31:56.053Z,43.48
2022-08-23T12:34:44.101Z,44.14
2022-08-23T12:37:52.105Z,42.81
2022-08-23T12:40:48.138Z,41.37
2022-08-23T12:43:22.752Z,41.66
2022-08-23T12:45:56.894Z,41.87
2022-08-23T12:51:17.849Z,43.14
2022-08-23T12:53:46.092Z,42.57
2022-08-23T12:56:32.145Z,41.02
2022-08-23T13:01:56.234Z,41.33
2022-08-23T13:04:25.299Z,43.18
2022-08-23T13:07:23.204Z,40.26
2022-08-23T13:10:16.863Z,40.95
2022-08-23T13:12:50.533Z,41.07
2022-08-23T13:18:47.898Z,40.35
2022-08-23T13:21:37.065Z,40.69
2022-08-23T13:24:39.486Z,41.74
2022-08-23T13:27:22.480Z,42.58
2022-08-23T13:36:33.471Z,42.89
2022-08-23T13:39:12.865Z,41.49
2022-08-23T13:41:50.890Z,39.39
2022-08-23T13:44:22.463Z,39.62
2022-08-23T13:46:50.063Z,40.30
2022-08-23T13:55:18.536Z,39.86
2022-08-23T13:57:48.177Z,40.39
2022-08-23T14:00:22.744Z,39.19
2022-08-23T14:02:50.748Z,38.87
2022-08-23T14:05:26.660Z,39.70
2022-08-23T14:07:53.955Z,38.85
2022-08-23T14:10:23.126Z,38.40
2022-08-23T14:12:58.571Z,40.48
2022-08-23T14:18:15.878Z,40.28
2022-08-23T14:20:45.875Z,40.05
2022-08-23T14:23:20.045Z,40.53
2022-08-23T14:25:51.209Z,40.94
2022-08-23T14:28:18.804Z,40.19
2022-08-23T14:30:48.024Z,40.72
2022-08-23T14:33:15.897Z,39.82
2022-08-23T14:35:44.853Z,41.39
2022-08-23T14:38:13.347Z,39.54
2022-08-23T14:40:50.369Z,39.78
2022-08-23T14:43:27.014Z,39.64
2022-08-23T14:46:01.957Z,40.72
2022-08-23T14:48:29.879Z,40.35
2022-08-23T14:50:58.324Z,40.62
2022-08-23T14:53:28.957Z,40.51
2022-08-23T14:59:03.042Z,41.77
2022-08-23T15:01:35.549Z,40.86
2022-08-23T15:04:25.080Z,43.03
2022-08-23T15:07:20.476Z,41.91
2022-08-23T15:12:57.364Z,40.39
2022-08-23T15:13:32.909Z,39.78
2022-08-23T15:16:33.543Z,40.57
2022-08-23T15:19:02.252Z,40.46
2022-08-23T15:21:30.004Z,41.19
2022-08-23T15:23:57.937Z,41.81
2022-08-23T15:26:30.233Z,42.20
2022-08-23T15:33:10.134Z,41.45
2022-08-23T15:35:52.047Z,42.40
2022-08-23T15:38:23.109Z,41.55
2022-08-23T15:40:52.129Z,41.08
2022-08-23T15:43:21.697Z,42.15
2022-08-23T15:48:45.561Z,41.16
2022-08-23T15:51:15.198Z,42.21
2022-08-23T15:53:41.884Z,41.98
2022-08-23T15:56:41.307Z,42.42
2022-08-23T15:59:14.283Z,42.52
2022-08-23T16:01:43.149Z,43.66
2022-08-23T16:04:10.812Z,43.20
2022-08-23T16:06:39.520Z,43.10
2022-08-23T16:09:14.653Z,43.48
2022-08-23T16:11:44.048Z,42.92
2022-08-23T16:14:13.965Z,43.30
2022-08-23T16:16:43.723Z,43.95
2022-08-23T16:19:12.809Z,42.84
2022-08-23T16:21:42.026Z,43.17
2022-08-23T16:24:10.097Z,43.34
2022-08-23T16:26:45.292Z,43.85
2022-08-23T16:29:17.082Z,43.07
2022-08-23T16:31:45.220Z,43.16
2022-08-23T16:34:42.878Z,43.16
2022-08-23T16:37:09.873Z,43.44
2022-08-23T16:39:37.878Z,43.79
2022-08-23T16:42:07.660Z,43.50
2022-08-23T16:44:36.276Z,43.83
2022-08-23T16:47:06.532Z,44.12
2022-08-23T16:49:34.717Z,43.61
2022-08-23T16:52:04.604Z,43.64
2022-08-23T16:54:31.943Z,44.52
2022-08-23T16:57:05.080Z,44.53
2022-08-23T16:59:40.371Z,45.43
2022-08-23T17:02:18.265Z,44.03
2022-08-23T17:04:52.801Z,44.71
2022-08-23T17:07:46.299Z,45.64
2022-08-23T17:10:16.137Z,43.89
2022-08-23T17:12:47.384Z,45.01
2022-08-23T17:15:20.746Z,43.86
2022-08-23T17:17:49.859Z,44.31
2022-08-23T17:20:20.159Z,44.93
2022-08-23T17:22:49.254Z,44.72
2022-08-23T17:25:22.745Z,44.45
2022-08-23T17:27:51.829Z,45.97
2022-08-23T17:30:22.814Z,45.39
2022-08-23T17:32:50.440Z,46.36
2022-08-23T17:35:21.409Z,45.19
2022-08-23T17:37:50.089Z,45.15
2022-08-23T17:40:22.670Z,45.29
2022-08-23T17:42:50.126Z,45.39
2022-08-23T17:45:23.504Z,45.92
2022-08-23T17:47:52.188Z,45.12
2022-08-23T17:50:20.986Z,46.35
2022-08-23T17:52:48.219Z,46.74
2022-08-23T17:58:11.142Z,47.40
2022-08-23T18:00:39.615Z,48.26
2022-08-23T18:06:02.335Z,49.27
2022-08-23T18:08:50.247Z,48.98
2022-08-23T18:11:23.099Z,48.20
2022-08-23T18:13:50.065Z,48.42
2022-08-23T18:16:17.994Z,48.30
2022-08-23T18:18:45.894Z,48.36
2022-08-23T18:21:41.365Z,49.88
2022-08-23T18:24:14.384Z,51.32
2022-08-23T18:27:01.552Z,51.30
2022-08-23T18:29:33.378Z,50.90
2022-08-23T18:32:28.851Z,50.99
2022-08-23T18:35:06.915Z,51.16
2022-08-23T18:37:34.129Z,50.83
2022-08-23T18:40:03.069Z,51.92
2022-08-23T18:42:58.089Z,52.00
2022-08-23T18:45:25.898Z,51.70
2022-08-23T18:50:51.686Z,52.08
2022-08-23T18:53:24.244Z,51.51
2022-08-23T18:55:57.463Z,53.03
2022-08-23T18:58:26.604Z,52.50
2022-08-23T19:00:56.391Z,53.32
2022-08-23T19:03:23.859Z,53.33
2022-08-23T19:05:52.179Z,53.43
2022-08-23T19:08:30.891Z,53.78
2022-08-23T19:10:57.851Z,52.95
2022-08-23T19:13:27.018Z,53.31
2022-08-23T19:16:00.499Z,52.52
2022-08-23T19:18:27.883Z,53.88
2022-08-23T19:20:55.947Z,54.04
2022-08-23T19:23:28.913Z,54.17
2022-08-23T19:28:53.357Z,53.41
2022-08-23T19:34:12.475Z,53.68
2022-08-23T19:36:46.926Z,54.38
2022-08-23T19:39:45.060Z,54.16
2022-08-23T19:42:11.973Z,54.39
2022-08-23T19:47:32.137Z,55.93
2022-08-23T19:49:59.991Z,54.26
2022-08-23T19:52:28.280Z,55.08
2022-08-23T19:55:03.016Z,54.78
2022-08-23T19:57:35.099Z,56.06
2022-08-23T20:00:09.596Z,55.30
2022-08-23T20:05:55.893Z,56.56
2022-08-23T20:08:24.853Z,56.06
2022-08-23T20:11:17.934Z,55.94
2022-08-23T20:19:31.429Z,56.40
2022-08-23T20:22:19.902Z,57.17
2022-08-23T20:25:13.858Z,57.95
2022-08-23T20:27:43.460Z,56.62
2022-08-23T20:30:13.722Z,57.14
2022-08-23T20:32:42.617Z,57.55
2022-08-23T20:35:11.354Z,58.34
2022-08-23T20:37:40.119Z,58.38
2022-08-23T20:40:14.402Z,57.21
2022-08-23T20:42:42.452Z,57.76
2022-08-23T20:45:35.971Z,58.04
2022-08-23T20:48:04.225Z,58.94
2022-08-23T20:50:35.895Z,58.34
2022-08-23T20:53:11.868Z,59.03
2022-08-23T20:55:40.280Z,58.53
2022-08-23T20:58:35.601Z,58.52
2022-08-23T21:01:09.381Z,59.53
2022-08-23T21:03:40.483Z,58.76
2022-08-23T21:06:24.014Z,59.33
2022-08-23T21:08:56.361Z,58.84
2022-08-23T21:14:20.657Z,59.27
2022-08-23T21:16:53.828Z,58.97
2022-08-23T21:19:21.853Z,59.34
2022-08-23T21:21:50.057Z,59.24
2022-08-23T21:27:10.051Z,60.15
2022-08-23T21:29:38.633Z,59.30
2022-08-23T21:32:57.388Z,59.90
2022-08-23T21:35:27.188Z,59.20
2022-08-23T21:37:53.866Z,59.46
2022-08-23T21:40:26.902Z,59.70
2022-08-23T21:42:54.140Z,59.95
2022-08-23T21:45:22.000Z,59.73
2022-08-23T21:47:49.845Z,59.58
2022-08-23T21:50:18.167Z,60.02
2022-08-23T21:52:54.633Z,60.69
2022-08-23T21:55:30.081Z,60.09
2022-08-23T21:58:29.877Z,60.31
2022-08-23T22:01:26.892Z,60.44
2022-08-23T22:03:57.141Z,60.38
2022-08-23T22:06:32.276Z,60.77
2022-08-23T22:08:59.910Z,61.02
2022-08-23T22:14:23.403Z,60.80
2022-08-23T22:16:55.895Z,60.54
2022-08-23T22:19:23.938Z,60.57
2022-08-23T22:21:52.799Z,60.75
2022-08-23T22:24:25.250Z,60.93
2022-08-23T22:26:55.450Z,60.82
2022-08-23T22:29:24.606Z,61.01
2022-08-23T22:32:17.912Z,61.12
2022-08-23T22:34:46.501Z,60.82
2022-08-23T22:37:14.871Z,60.95
2022-08-23T22:39:41.935Z,61.13
2022-08-23T22:42:09.934Z,61.13
2022-08-23T22:47:30.069Z,61.64
2022-08-23T22:50:08.155Z,61.73
2022-08-23T22:52:36.275Z,60.91
2022-08-23T23:01:22.525Z,61.77
2022-08-23T23:03:51.611Z,62.01
2022-08-23T23:06:25.713Z,61.92
2022-08-23T23:08:54.458Z,62.25
2022-08-23T23:11:22.696Z,61.91
2022-08-23T23:13:50.220Z,62.38
2022-08-23T23:16:21.394Z,62.21
2022-08-23T23:19:08.981Z,62.49
2022-08-23T23:21:46.789Z,62.23
2022-08-23T23:24:17.618Z,62.75
2022-08-23T23:27:10.080Z,62.79
2022-08-23T23:29:38.496Z,62.74
2022-08-23T23:32:11.183Z,62.86
2022-08-23T23:34:38.009Z,62.74
2022-08-23T23:37:09.930Z,63.17
2022-08-23T23:39:37.896Z,62.93
2022-08-23T23:42:06.197Z,63.79
2022-08-23T23:44:33.932Z,63.58
2022-08-23T23:47:07.025Z,64.03
2022-08-23T23:49:39.946Z,63.80
2022-08-23T23:52:31.931Z,63.75
2022-08-23T23:55:01.627Z,63.88
